Time;durP1;ratioP1;P1;durP2;ratioP2;P2;SDS_P1;SDS_P2;PMS_P1;PMS_P2;Temp;Humidity;BMP_temperature;BMP_pressure;BME280_temperature;BME280_humidity;BME280_pressure;Samples;Min_cycle;Max_cycle;Signal;HPM_P1;HPM_P2
2021/05/16 00:00:21;;;;;;;2.00;1.38;;;;;;;;;;5113813;28;20483;-40
2021/05/16 00:02:47;;;;;;;3.22;1.52;;;;;;;;;;5114366;28;20234;-40
2021/05/16 00:05:13;;;;;;;2.55;1.60;;;;;;;;;;5115283;28;20260;-40
2021/05/16 00:07:41;;;;;;;1.60;1.48;;;;;;;;;;5114783;28;20593;-40
2021/05/16 00:10:07;;;;;;;1.55;1.30;;;;;;;;;;5115188;28;20238;-40
2021/05/16 00:12:33;;;;;;;1.60;1.40;;;;;;;;;;5114849;28;20609;-40
2021/05/16 00:14:59;;;;;;;2.88;1.27;;;;;;;;;;5114048;28;20196;-40
2021/05/16 00:17:26;;;;;;;1.55;1.30;;;;;;;;;;5113793;28;20187;-40
2021/05/16 00:19:52;;;;;;;1.48;1.30;;;;;;;;;;5114483;28;20173;-40
2021/05/16 00:22:18;;;;;;;1.25;1.10;;;;;;;;;;5113976;28;20185;-40
2021/05/16 00:24:44;;;;;;;1.67;1.17;;;;;;;;;;5115338;28;20497;-40
2021/05/16 00:27:10;;;;;;;1.35;1.17;;;;;;;;;;5077636;28;20174;-40
2021/05/16 00:29:37;;;;;;;1.38;0.82;;;;;;;;;;5101082;28;20185;-40
2021/05/16 00:32:03;;;;;;;1.35;1.10;;;;;;;;;;5114500;28;20181;-40
2021/05/16 00:34:29;;;;;;;1.52;1.20;;;;;;;;;;5110259;28;20435;-40
2021/05/16 00:36:55;;;;;;;1.38;1.27;;;;;;;;;;5114307;28;20575;-40
2021/05/16 00:39:21;;;;;;;1.35;1.00;;;;;;;;;;5114866;28;20178;-40
2021/05/16 00:41:47;;;;;;;1.20;1.10;;;;;;;;;;5114409;28;20181;-40
2021/05/16 00:44:15;;;;;;;1.30;1.10;;;;;;;;;;5115090;28;20201;-40
2021/05/16 00:46:41;;;;;;;1.55;1.10;;;;;;;;;;5114850;28;20173;-40
2021/05/16 00:49:07;;;;;;;1.33;1.23;;;;;;;;;;5114761;28;20173;-40
2021/05/16 00:51:33;;;;;;;1.23;1.05;;;;;;;;;;5109929;28;20169;-40
2021/05/16 00:53:59;;;;;;;1.20;0.90;;;;;;;;;;5114379;28;20181;-40
2021/05/16 00:56:25;;;;;;;1.20;1.10;;;;;;;;;;5115313;28;20494;-40
2021/05/16 00:58:51;;;;;;;2.25;1.42;;;;;;;;;;5114939;28;20494;-40
2021/05/16 01:01:19;;;;;;;1.33;1.00;;;;;;;;;;5113901;28;20201;-40
2021/05/16 01:03:45;;;;;;;1.85;1.10;;;;;;;;;;5114175;28;20189;-40
2021/05/16 01:06:11;;;;;;;0.98;0.90;;;;;;;;;;5114556;28;20420;-40
2021/05/16 01:08:37;;;;;;;1.38;1.20;;;;;;;;;;5107397;28;20185;-40
2021/05/16 01:11:03;;;;;;;1.17;0.93;;;;;;;;;;5096714;28;20182;-40
2021/05/16 01:13:29;;;;;;;1.40;1.30;;;;;;;;;;5114892;28;20555;-40
2021/05/16 01:15:55;;;;;;;2.17;0.90;;;;;;;;;;5114883;28;20572;-40
2021/05/16 01:18:22;;;;;;;1.00;0.90;;;;;;;;;;5114102;28;20219;-40
2021/05/16 01:20:50;;;;;;;1.23;1.00;;;;;;;;;;5113533;28;20615;-40
2021/05/16 01:23:19;;;;;;;0.73;0.70;;;;;;;;;;5114324;28;20205;-40
2021/05/16 01:25:47;;;;;;;1.05;0.88;;;;;;;;;;5114401;28;20176;-40
2021/05/16 01:28:15;;;;;;;1.60;0.90;;;;;;;;;;5118684;28;20180;-40
2021/05/16 01:30:41;;;;;;;1.52;0.80;;;;;;;;;;5117586;28;20192;-40
2021/05/16 01:33:07;;;;;;;1.02;0.90;;;;;;;;;;5117491;28;20567;-40
2021/05/16 01:35:34;;;;;;;0.90;0.80;;;;;;;;;;5118154;28;20177;-40
2021/05/16 01:38:00;;;;;;;1.10;1.00;;;;;;;;;;5117956;28;20200;-40
2021/05/16 01:40:27;;;;;;;1.10;1.00;;;;;;;;;;5117663;28;20560;-40
2021/05/16 01:42:55;;;;;;;1.40;0.88;;;;;;;;;;5117027;28;20212;-40
2021/05/16 01:45:25;;;;;;;1.00;0.90;;;;;;;;;;5098004;28;20169;-40
2021/05/16 01:47:52;;;;;;;0.75;0.70;;;;;;;;;;5117428;28;20185;-40
2021/05/16 01:50:19;;;;;;;1.13;1.05;;;;;;;;;;5099874;28;20181;-40
2021/05/16 01:52:46;;;;;;;1.00;0.90;;;;;;;;;;5116814;28;20177;-40
2021/05/16 01:55:13;;;;;;;0.90;0.90;;;;;;;;;;5118194;28;20169;-40
2021/05/16 01:57:39;;;;;;;0.90;0.80;;;;;;;;;;5105133;28;20455;-40
2021/05/16 02:00:07;;;;;;;0.70;0.70;;;;;;;;;;5117796;28;20540;-40
2021/05/16 02:02:33;;;;;;;1.13;0.80;;;;;;;;;;5116811;28;20204;-40
2021/05/16 02:05:00;;;;;;;0.88;0.80;;;;;;;;;;5117761;28;20180;-40
2021/05/16 02:07:26;;;;;;;1.50;0.75;;;;;;;;;;5117657;28;20176;-40
2021/05/16 02:09:52;;;;;;;0.82;0.82;;;;;;;;;;5116884;28;20205;-40
2021/05/16 02:12:18;;;;;;;1.85;1.00;;;;;;;;;;5111170;28;20181;-40
2021/05/16 02:14:45;;;;;;;1.70;0.85;;;;;;;;;;5116320;28;20772;-40
2021/05/16 02:17:12;;;;;;;0.88;0.60;;;;;;;;;;5116815;28;20161;-40
2021/05/16 02:19:38;;;;;;;0.85;0.75;;;;;;;;;;5117295;28;20180;-40
2021/05/16 02:22:04;;;;;;;0.73;0.73;;;;;;;;;;5116809;28;20189;-40
2021/05/16 02:24:30;;;;;;;0.73;0.73;;;;;;;;;;5116830;28;20227;-40
2021/05/16 02:26:59;;;;;;;0.60;0.60;;;;;;;;;;5117716;28;20161;-40
2021/05/16 02:29:25;;;;;;;0.82;0.70;;;;;;;;;;5110200;28;20173;-40
2021/05/16 02:31:51;;;;;;;0.73;0.73;;;;;;;;;;5115670;28;20237;-40
2021/05/16 02:34:17;;;;;;;0.60;0.60;;;;;;;;;;5117230;28;20185;-40
2021/05/16 02:36:45;;;;;;;1.08;0.73;;;;;;;;;;5117246;28;20252;-40
2021/05/16 02:39:11;;;;;;;0.90;0.70;;;;;;;;;;5112973;28;20265;-40
2021/05/16 02:41:37;;;;;;;0.77;0.77;;;;;;;;;;5114890;28;20510;-40
2021/05/16 02:44:03;;;;;;;0.73;0.70;;;;;;;;;;5116956;28;20284;-40
2021/05/16 02:46:29;;;;;;;0.98;0.73;;;;;;;;;;5117323;28;20166;-40
2021/05/16 02:48:55;;;;;;;0.73;0.70;;;;;;;;;;5108107;28;20230;-40
2021/05/16 02:51:21;;;;;;;1.45;0.70;;;;;;;;;;5116057;28;20230;-40
2021/05/16 02:53:48;;;;;;;0.75;0.63;;;;;;;;;;5110432;28;20706;-40
2021/05/16 02:56:14;;;;;;;0.68;0.60;;;;;;;;;;5107795;28;20272;-40
2021/05/16 02:58:41;;;;;;;0.93;0.68;;;;;;;;;;5102609;28;20192;-40
2021/05/16 03:01:07;;;;;;;0.57;0.57;;;;;;;;;;5115870;28;20189;-40
2021/05/16 03:03:33;;;;;;;0.75;0.60;;;;;;;;;;5098653;28;20235;-40
2021/05/16 03:06:00;;;;;;;1.00;0.70;;;;;;;;;;5099204;28;20521;-40
2021/05/16 03:08:26;;;;;;;0.70;0.60;;;;;;;;;;5113342;28;20555;-40
2021/05/16 03:10:52;;;;;;;0.70;0.70;;;;;;;;;;5110642;28;20166;-40
2021/05/16 03:13:18;;;;;;;0.30;0.30;;;;;;;;;;5110663;28;20184;-40
2021/05/16 03:15:44;;;;;;;0.60;0.50;;;;;;;;;;5096271;28;20592;-40
2021/05/16 03:18:10;;;;;;;0.70;0.50;;;;;;;;;;5115857;28;20259;-40
2021/05/16 03:20:36;;;;;;;1.25;0.77;;;;;;;;;;5115595;28;20187;-40
2021/05/16 03:23:02;;;;;;;0.60;0.60;;;;;;;;;;5110985;28;20276;-40
2021/05/16 03:25:28;;;;;;;0.52;0.52;;;;;;;;;;5109442;28;20240;-40
2021/05/16 03:27:54;;;;;;;0.55;0.50;;;;;;;;;;5115770;28;20599;-40
2021/05/16 03:30:20;;;;;;;0.52;0.52;;;;;;;;;;5108443;28;20600;-40
2021/05/16 03:32:46;;;;;;;0.88;0.60;;;;;;;;;;5115299;28;20188;-40
2021/05/16 03:35:13;;;;;;;0.68;0.68;;;;;;;;;;5098297;28;20184;-40
2021/05/16 03:37:39;;;;;;;1.00;0.70;;;;;;;;;;5112605;28;20252;-40
2021/05/16 03:40:06;;;;;;;0.60;0.60;;;;;;;;;;5115750;28;20166;-40
2021/05/16 03:42:32;;;;;;;0.85;0.52;;;;;;;;;;5115208;28;20172;-40
2021/05/16 03:44:58;;;;;;;1.05;0.65;;;;;;;;;;5116132;28;20579;-40
2021/05/16 03:47:24;;;;;;;0.60;0.60;;;;;;;;;;5110207;28;20186;-40
2021/05/16 03:49:50;;;;;;;0.60;0.60;;;;;;;;;;5114356;28;20185;-40
2021/05/16 03:52:19;;;;;;;1.05;0.60;;;;;;;;;;5115022;28;20680;-40
2021/05/16 03:54:46;;;;;;;1.33;0.60;;;;;;;;;;5115570;28;20183;-40
2021/05/16 03:57:12;;;;;;;0.60;0.60;;;;;;;;;;5098095;28;20176;-40
2021/05/16 03:59:38;;;;;;;0.73;0.70;;;;;;;;;;5115260;28;20185;-40
2021/05/16 04:02:05;;;;;;;0.52;0.52;;;;;;;;;;5105726;28;20204;-40
2021/05/16 04:04:31;;;;;;;0.40;0.40;;;;;;;;;;5097162;28;20612;-40
2021/05/16 04:06:57;;;;;;;0.60;0.50;;;;;;;;;;5095791;28;20231;-40
2021/05/16 04:09:23;;;;;;;0.77;0.55;;;;;;;;;;5115011;28;20169;-40
2021/05/16 04:11:49;;;;;;;0.40;0.40;;;;;;;;;;5114752;28;20780;-40
2021/05/16 04:14:16;;;;;;;1.20;0.50;;;;;;;;;;5115465;28;20169;-40
2021/05/16 04:16:42;;;;;;;0.80;0.68;;;;;;;;;;5114501;28;20177;-40
2021/05/16 04:19:08;;;;;;;0.50;0.50;;;;;;;;;;5109096;28;20186;-40
2021/05/16 04:21:34;;;;;;;0.50;0.50;;;;;;;;;;5113734;28;20205;-40
2021/05/16 04:24:00;;;;;;;0.60;0.50;;;;;;;;;;5114592;28;20285;-40
2021/05/16 04:26:26;;;;;;;0.45;0.45;;;;;;;;;;5114544;28;20165;-40
2021/05/16 04:28:52;;;;;;;0.52;0.52;;;;;;;;;;5115302;28;20821;-40
2021/05/16 04:31:18;;;;;;;0.50;0.50;;;;;;;;;;5101759;28;20188;-40
2021/05/16 04:33:44;;;;;;;0.50;0.43;;;;;;;;;;5111203;28;20552;-40
2021/05/16 04:36:10;;;;;;;1.40;0.45;;;;;;;;;;5114994;28;20179;-40
2021/05/16 04:38:36;;;;;;;1.42;0.60;;;;;;;;;;5113764;28;20169;-40
2021/05/16 04:41:02;;;;;;;0.68;0.50;;;;;;;;;;5113604;28;20173;-40
2021/05/16 04:43:28;;;;;;;0.65;0.50;;;;;;;;;;5115103;28;20499;-40
2021/05/16 04:45:54;;;;;;;4.18;0.70;;;;;;;;;;5107797;28;20173;-40
2021/05/16 04:48:20;;;;;;;3.67;0.82;;;;;;;;;;5115033;28;20166;-40
2021/05/16 04:50:46;;;;;;;1.63;0.70;;;;;;;;;;5113914;28;20169;-40
2021/05/16 04:53:12;;;;;;;1.65;0.47;;;;;;;;;;5114402;28;20247;-40
2021/05/16 04:55:38;;;;;;;0.95;0.70;;;;;;;;;;5114796;28;20262;-40
2021/05/16 04:58:04;;;;;;;2.28;0.80;;;;;;;;;;5114837;28;20220;-40
2021/05/16 05:00:30;;;;;;;3.30;0.80;;;;;;;;;;5108928;28;20195;-40
2021/05/16 05:02:56;;;;;;;2.47;0.55;;;;;;;;;;5097963;28;20445;-40
2021/05/16 05:05:22;;;;;;;4.53;0.63;;;;;;;;;;5117387;28;20177;-40
2021/05/16 05:07:48;;;;;;;3.22;0.88;;;;;;;;;;5118141;28;20252;-40
2021/05/16 05:10:14;;;;;;;2.30;1.08;;;;;;;;;;5118674;28;20165;-40
2021/05/16 05:12:40;;;;;;;1.52;0.82;;;;;;;;;;5118016;28;20180;-40
2021/05/16 05:15:07;;;;;;;3.90;0.95;;;;;;;;;;5117925;28;20567;-40
2021/05/16 05:17:33;;;;;;;1.10;0.70;;;;;;;;;;5118773;28;20169;-40
2021/05/16 05:19:59;;;;;;;1.08;0.57;;;;;;;;;;5117709;28;20169;-40
2021/05/16 05:22:25;;;;;;;0.65;0.65;;;;;;;;;;5117311;28;20181;-40
2021/05/16 05:24:51;;;;;;;1.40;0.65;;;;;;;;;;5118440;28;20568;-40
2021/05/16 05:27:17;;;;;;;3.95;0.73;;;;;;;;;;5118086;28;20161;-40
2021/05/16 05:29:43;;;;;;;1.08;0.57;;;;;;;;;;5108418;28;20184;-41
2021/05/16 05:32:10;;;;;;;3.63;0.73;;;;;;;;;;5114429;28;20184;-40
2021/05/16 05:34:36;;;;;;;3.05;0.80;;;;;;;;;;5117907;28;20173;-43
2021/05/16 05:37:02;;;;;;;1.23;0.80;;;;;;;;;;5117590;28;20181;-41
2021/05/16 05:39:28;;;;;;;3.35;1.00;;;;;;;;;;5118012;28;20185;-41
2021/05/16 05:41:54;;;;;;;4.22;1.08;;;;;;;;;;5115166;28;20174;-40
2021/05/16 05:44:20;;;;;;;2.08;0.80;;;;;;;;;;5103047;28;20575;-42
2021/05/16 05:46:46;;;;;;;5.60;0.85;;;;;;;;;;5118257;28;20169;-41
2021/05/16 05:49:12;;;;;;;6.53;0.88;;;;;;;;;;5117583;28;20176;-43
2021/05/16 05:51:38;;;;;;;1.75;0.98;;;;;;;;;;5117146;28;20551;-41
2021/05/16 05:54:04;;;;;;;6.57;0.80;;;;;;;;;;5117620;28;20184;-41
2021/05/16 05:56:30;;;;;;;2.70;0.80;;;;;;;;;;5117458;28;20253;-42
2021/05/16 05:58:56;;;;;;;3.55;0.60;;;;;;;;;;5111702;28;20184;-41
2021/05/16 06:01:22;;;;;;;0.88;0.85;;;;;;;;;;5110629;28;20197;-43
2021/05/16 06:03:49;;;;;;;5.07;0.80;;;;;;;;;;5117574;28;20782;-42
2021/05/16 06:06:15;;;;;;;3.42;1.00;;;;;;;;;;5117660;28;20165;-42
2021/05/16 06:08:41;;;;;;;2.78;0.90;;;;;;;;;;5117530;28;20208;-42
2021/05/16 06:11:07;;;;;;;3.35;0.90;;;;;;;;;;5109551;28;20174;-42
2021/05/16 06:13:33;;;;;;;1.85;0.80;;;;;;;;;;5098753;28;20281;-42
2021/05/16 06:15:59;;;;;;;1.10;0.60;;;;;;;;;;5117761;28;20170;-42
2021/05/16 06:18:25;;;;;;;1.58;0.70;;;;;;;;;;5116920;28;20177;-42
2021/05/16 06:20:51;;;;;;;1.58;0.80;;;;;;;;;;5116878;28;20596;-42
2021/05/16 06:23:18;;;;;;;2.03;0.65;;;;;;;;;;5117033;28;20275;-42
2021/05/16 06:25:48;;;;;;;1.50;0.70;;;;;;;;;;5111632;28;20173;-42
2021/05/16 06:28:14;;;;;;;2.28;0.90;;;;;;;;;;5117496;28;20165;-47
2021/05/16 06:30:40;;;;;;;4.82;0.70;;;;;;;;;;5116473;28;20205;-46
2021/05/16 06:33:06;;;;;;;2.50;0.80;;;;;;;;;;5116021;28;20185;-46
2021/05/16 06:35:32;;;;;;;1.85;0.75;;;;;;;;;;5104259;28;20250;-46
2021/05/16 06:37:58;;;;;;;3.20;1.00;;;;;;;;;;5112574;28;20204;-47
2021/05/16 06:40:24;;;;;;;1.27;0.70;;;;;;;;;;5117145;28;20165;-46
2021/05/16 06:42:50;;;;;;;3.08;0.80;;;;;;;;;;5116560;28;20279;-45
2021/05/16 06:45:16;;;;;;;1.42;0.60;;;;;;;;;;5116862;28;20458;-40
2021/05/16 06:47:42;;;;;;;1.63;0.70;;;;;;;;;;5116534;28;20177;-40
2021/05/16 06:50:09;;;;;;;1.85;0.80;;;;;;;;;;5112316;28;20177;-41
2021/05/16 06:52:36;;;;;;;1.27;0.70;;;;;;;;;;5116063;28;20302;-40
2021/05/16 06:55:03;;;;;;;2.60;1.15;;;;;;;;;;5116942;28;20453;-40
2021/05/16 06:57:29;;;;;;;1.45;0.60;;;;;;;;;;5117047;28;20169;-40
2021/05/16 06:59:55;;;;;;;1.63;0.70;;;;;;;;;;5116482;28;20301;-40
2021/05/16 07:02:21;;;;;;;4.45;0.73;;;;;;;;;;5113749;28;20244;-40
2021/05/16 07:04:48;;;;;;;2.40;0.82;;;;;;;;;;5097014;28;20285;-40
2021/05/16 07:07:15;;;;;;;4.72;0.90;;;;;;;;;;5112448;28;20176;-40
2021/05/16 07:09:42;;;;;;;2.15;0.85;;;;;;;;;;5116563;28;20184;-40
2021/05/16 07:12:08;;;;;;;3.33;1.35;;;;;;;;;;5115849;28;20173;-40
2021/05/16 07:14:34;;;;;;;3.10;1.05;;;;;;;;;;5115912;28;20196;-40
2021/05/16 07:17:00;;;;;;;4.75;1.00;;;;;;;;;;5115688;28;20551;-40
2021/05/16 07:19:26;;;;;;;4.38;1.50;;;;;;;;;;5115705;28;20208;-40
2021/05/16 07:21:52;;;;;;;5.10;1.38;;;;;;;;;;5115341;28;20196;-40
2021/05/16 07:24:18;;;;;;;7.32;1.50;;;;;;;;;;5115341;28;20213;-40
2021/05/16 07:26:44;;;;;;;6.03;1.27;;;;;;;;;;5115157;28;20200;-40
2021/05/16 07:29:10;;;;;;;2.55;1.17;;;;;;;;;;5115252;28;20228;-40
2021/05/16 07:31:36;;;;;;;4.95;1.50;;;;;;;;;;5112802;28;20295;-40
2021/05/16 07:34:02;;;;;;;2.97;1.15;;;;;;;;;;5110920;28;20173;-40
2021/05/16 07:36:28;;;;;;;6.40;1.40;;;;;;;;;;5115646;28;20288;-40
2021/05/16 07:38:54;;;;;;;3.72;1.33;;;;;;;;;;5115399;28;20260;-40
2021/05/16 07:41:20;;;;;;;3.83;1.10;;;;;;;;;;5115451;28;20169;-41
2021/05/16 07:43:47;;;;;;;2.50;1.20;;;;;;;;;;5115956;28;20185;-40
2021/05/16 07:46:12;;;;;;;5.53;1.15;;;;;;;;;;5115565;28;20195;-40
2021/05/16 07:48:39;;;;;;;3.03;1.10;;;;;;;;;;5097339;28;20196;-40
2021/05/16 07:51:06;;;;;;;3.35;1.45;;;;;;;;;;5114575;28;20169;-40
2021/05/16 07:53:32;;;;;;;8.50;1.20;;;;;;;;;;5111263;28;20195;-40
2021/05/16 07:55:58;;;;;;;3.78;1.35;;;;;;;;;;5116058;28;20431;-40
2021/05/16 07:58:25;;;;;;;5.00;1.27;;;;;;;;;;5110485;28;20177;-40
2021/05/16 08:00:51;;;;;;;4.85;1.10;;;;;;;;;;5113199;28;20830;-40
2021/05/16 08:03:17;;;;;;;4.57;1.05;;;;;;;;;;5114536;28;20272;-40
2021/05/16 08:05:43;;;;;;;3.10;1.17;;;;;;;;;;5109794;28;20271;-40
2021/05/16 08:08:09;;;;;;;5.35;1.50;;;;;;;;;;5105545;28;20183;-40
2021/05/16 08:10:35;;;;;;;3.83;1.52;;;;;;;;;;5114869;28;20191;-40
2021/05/16 08:13:01;;;;;;;8.73;1.65;;;;;;;;;;5115379;28;20157;-40
2021/05/16 08:15:27;;;;;;;5.35;1.48;;;;;;;;;;5115224;28;20218;-40
2021/05/16 08:17:53;;;;;;;7.22;1.33;;;;;;;;;;5115407;28;20161;-40
2021/05/16 08:20:19;;;;;;;4.25;1.40;;;;;;;;;;5115154;28;20698;-40
2021/05/16 08:22:45;;;;;;;2.30;1.00;;;;;;;;;;5111882;28;20174;-40
2021/05/16 08:25:12;;;;;;;2.60;1.13;;;;;;;;;;5104186;28;20212;-40
2021/05/16 08:27:41;;;;;;;4.15;1.50;;;;;;;;;;5094854;28;20162;-40
2021/05/16 08:30:07;;;;;;;4.75;1.58;;;;;;;;;;5104032;28;20570;-40
2021/05/16 08:32:33;;;;;;;6.22;1.45;;;;;;;;;;5114567;28;20196;-40
2021/05/16 08:34:59;;;;;;;4.30;1.20;;;;;;;;;;5114445;28;20540;-40
2021/05/16 08:37:25;;;;;;;6.53;2.75;;;;;;;;;;5114960;28;20208;-40
2021/05/16 08:39:51;;;;;;;17.65;6.30;;;;;;;;;;5106261;28;20246;-40
2021/05/16 08:42:17;;;;;;;21.73;8.82;;;;;;;;;;5103939;28;20207;-40
2021/05/16 08:44:44;;;;;;;18.90;7.40;;;;;;;;;;5114974;28;20215;-40
2021/05/16 08:47:10;;;;;;;16.05;7.35;;;;;;;;;;5115230;28;20226;-40
2021/05/16 08:49:36;;;;;;;16.95;6.68;;;;;;;;;;5115092;28;20193;-40
2021/05/16 08:52:03;;;;;;;16.02;6.07;;;;;;;;;;5114167;28;20588;-40
2021/05/16 08:54:29;;;;;;;16.83;6.00;;;;;;;;;;5114674;28;20187;-40
2021/05/16 08:56:56;;;;;;;15.93;5.43;;;;;;;;;;5113542;28;20165;-40
2021/05/16 08:59:26;;;;;;;16.15;6.20;;;;;;;;;;5114737;28;20590;-40
2021/05/16 09:01:57;;;;;;;12.45;5.40;;;;;;;;;;5114513;28;20169;-40
2021/05/16 09:04:31;;;;;;;15.70;6.00;;;;;;;;;;5114517;28;20205;-40
2021/05/16 09:06:57;;;;;;;16.02;5.30;;;;;;;;;;5114590;28;20625;-40
2021/05/16 09:09:25;;;;;;;12.15;4.50;;;;;;;;;;5114182;28;20234;-40
2021/05/16 09:12:09;;;;;;;13.57;5.38;;;;;;;;;;5114406;28;20705;-40
2021/05/16 09:14:46;;;;;;;12.25;4.65;;;;;;;;;;5084394;28;20212;-40
2021/05/16 09:17:32;;;;;;;10.85;4.70;;;;;;;;;;5107059;28;20175;-40
2021/05/16 09:20:03;;;;;;;8.82;4.72;;;;;;;;;;5113964;28;20623;-40
2021/05/16 09:22:29;;;;;;;12.23;4.97;;;;;;;;;;5113381;28;20189;-40
2021/05/16 09:25:11;;;;;;;14.95;5.18;;;;;;;;;;5114683;28;20728;-40
2021/05/16 09:27:37;;;;;;;12.57;5.43;;;;;;;;;;5096795;28;20161;-40
2021/05/16 09:30:16;;;;;;;14.63;5.90;;;;;;;;;;5111506;28;20588;-40
2021/05/16 09:32:48;;;;;;;13.43;5.53;;;;;;;;;;5114136;28;20556;-40
2021/05/16 09:35:14;;;;;;;12.25;5.43;;;;;;;;;;5114252;28;20209;-40
2021/05/16 09:37:56;;;;;;;13.65;5.43;;;;;;;;;;5114250;28;20169;-40
2021/05/16 09:40:25;;;;;;;11.55;5.13;;;;;;;;;;5113754;28;20213;-40
2021/05/16 09:43:10;;;;;;;16.42;5.35;;;;;;;;;;5113847;28;20185;-40
2021/05/16 09:45:43;;;;;;;12.80;6.22;;;;;;;;;;5113536;28;20793;-40
2021/05/16 09:48:28;;;;;;;11.63;5.85;;;;;;;;;;5106029;28;20231;-40
2021/05/16 09:51:07;;;;;;;16.23;6.20;;;;;;;;;;5117623;28;20192;-40
2021/05/16 09:53:33;;;;;;;15.43;5.50;;;;;;;;;;5113512;28;20225;-40
2021/05/16 09:56:16;;;;;;;14.27;5.95;;;;;;;;;;5117985;28;20181;-40
2021/05/16 09:58:42;;;;;;;14.20;5.75;;;;;;;;;;5117971;28;20184;-40
2021/05/16 10:01:09;;;;;;;12.95;5.88;;;;;;;;;;5099259;28;20272;-40
2021/05/16 10:03:35;;;;;;;14.93;6.15;;;;;;;;;;5116518;28;20225;-40
2021/05/16 10:06:02;;;;;;;12.30;5.53;;;;;;;;;;5112791;28;20174;-40
2021/05/16 10:08:28;;;;;;;12.02;5.70;;;;;;;;;;5110658;28;20187;-40
2021/05/16 10:10:54;;;;;;;11.93;5.32;;;;;;;;;;5107270;28;20208;-40
2021/05/16 10:13:21;;;;;;;17.95;6.22;;;;;;;;;;5117195;28;20486;-40
2021/05/16 10:15:47;;;;;;;13.18;5.68;;;;;;;;;;5117971;28;20222;-40
2021/05/16 10:18:13;;;;;;;15.32;5.40;;;;;;;;;;5116737;28;20238;-40
2021/05/16 10:20:41;;;;;;;14.40;5.82;;;;;;;;;;5110448;28;20189;-40
2021/05/16 10:23:10;;;;;;;10.98;5.50;;;;;;;;;;5117076;28;20173;-40
2021/05/16 10:25:46;;;;;;;13.50;5.75;;;;;;;;;;5117578;28;20247;-40
2021/05/16 10:28:15;;;;;;;12.88;5.63;;;;;;;;;;5116768;28;20194;-40
2021/05/16 10:30:41;;;;;;;17.42;6.30;;;;;;;;;;5116015;28;20165;-40
2021/05/16 10:33:07;;;;;;;19.17;6.85;;;;;;;;;;5116676;28;20204;-40
2021/05/16 10:35:51;;;;;;;16.83;6.68;;;;;;;;;;5116559;28;20192;-40
2021/05/16 10:38:33;;;;;;;19.90;6.80;;;;;;;;;;5113400;28;20177;-40
2021/05/16 10:41:21;;;;;;;23.13;7.95;;;;;;;;;;5116433;28;20197;-40
2021/05/16 10:43:47;;;;;;;22.10;8.30;;;;;;;;;;5117203;28;20468;-40
2021/05/16 10:46:32;;;;;;;29.30;8.75;;;;;;;;;;5116846;28;20250;-40
2021/05/16 10:49:17;;;;;;;29.25;9.38;;;;;;;;;;5115325;28;20252;-40
2021/05/16 10:51:43;;;;;;;38.72;11.73;;;;;;;;;;5111023;28;20177;-40
2021/05/16 10:54:28;;;;;;;32.45;11.23;;;;;;;;;;5113047;28;20184;-40
2021/05/16 10:57:12;;;;;;;39.78;11.60;;;;;;;;;;5117348;28;20647;-40
2021/05/16 10:59:39;;;;;;;40.17;11.43;;;;;;;;;;5116300;28;20208;-40
2021/05/16 11:02:05;;;;;;;32.03;10.70;;;;;;;;;;5116074;28;20199;-40
2021/05/16 11:04:53;;;;;;;25.42;9.20;;;;;;;;;;5114709;28;20294;-40
2021/05/16 11:07:34;;;;;;;32.05;9.57;;;;;;;;;;5115463;28;20184;-40
2021/05/16 11:10:19;;;;;;;25.80;9.18;;;;;;;;;;5109882;28;20177;-40
2021/05/16 11:12:46;;;;;;;26.67;9.50;;;;;;;;;;5099165;28;20218;-40
2021/05/16 11:15:22;;;;;;;33.90;10.30;;;;;;;;;;5115570;28;20184;-40
2021/05/16 11:17:48;;;;;;;25.50;9.40;;;;;;;;;;5116761;28;20180;-40
2021/05/16 11:20:14;;;;;;;27.10;9.80;;;;;;;;;;5116099;28;20204;-40
2021/05/16 11:22:43;;;;;;;31.50;9.65;;;;;;;;;;5109522;28;20229;-40
2021/05/16 11:25:09;;;;;;;32.28;9.77;;;;;;;;;;5116443;28;20208;-40
2021/05/16 11:27:36;;;;;;;26.17;7.35;;;;;;;;;;5113817;28;20241;-40
2021/05/16 11:30:07;;;;;;;26.58;8.43;;;;;;;;;;5116454;28;20181;-40
2021/05/16 11:32:33;;;;;;;23.55;8.40;;;;;;;;;;5115947;28;20165;-40
2021/05/16 11:35:05;;;;;;;21.58;7.15;;;;;;;;;;5116180;28;20259;-40
2021/05/16 11:37:32;;;;;;;18.35;7.10;;;;;;;;;;5115735;28;20174;-40
2021/05/16 11:40:13;;;;;;;22.23;6.63;;;;;;;;;;5115435;28;20197;-40
2021/05/16 11:42:40;;;;;;;20.95;7.07;;;;;;;;;;5115679;28;20169;-40
2021/05/16 11:45:07;;;;;;;18.83;6.40;;;;;;;;;;5114821;28;20197;-40
2021/05/16 11:47:42;;;;;;;17.70;6.10;;;;;;;;;;5115549;28;20161;-40
2021/05/16 11:50:09;;;;;;;14.45;6.50;;;;;;;;;;5115129;28;20812;-40
2021/05/16 11:52:36;;;;;;;16.95;6.38;;;;;;;;;;5111376;28;20449;-40
2021/05/16 11:55:07;;;;;;;14.25;5.30;;;;;;;;;;5115050;28;20222;-40
2021/05/16 11:57:34;;;;;;;13.65;6.03;;;;;;;;;;5115851;28;20328;-40
2021/05/16 12:00:05;;;;;;;16.50;5.93;;;;;;;;;;5113681;28;20169;-40
2021/05/16 12:02:34;;;;;;;17.48;5.88;;;;;;;;;;5094499;28;20591;-40
2021/05/16 12:05:00;;;;;;;14.45;5.65;;;;;;;;;;5115070;28;20201;-40
2021/05/16 12:07:27;;;;;;;13.70;5.43;;;;;;;;;;5115487;28;20405;-40
2021/05/16 12:09:53;;;;;;;14.27;5.38;;;;;;;;;;5114940;28;20383;-40
2021/05/16 12:12:21;;;;;;;14.68;5.18;;;;;;;;;;5115123;28;20180;-40
2021/05/16 12:14:49;;;;;;;11.30;4.85;;;;;;;;;;5101839;28;20179;-40
2021/05/16 12:17:15;;;;;;;10.13;4.80;;;;;;;;;;5111438;28;20181;-40
2021/05/16 12:19:42;;;;;;;12.80;4.97;;;;;;;;;;5110646;28;20288;-40
2021/05/16 12:22:12;;;;;;;12.43;5.03;;;;;;;;;;5114576;28;20216;-40
2021/05/16 12:24:45;;;;;;;13.43;4.82;;;;;;;;;;5112245;28;20204;-40
2021/05/16 12:27:12;;;;;;;11.40;4.50;;;;;;;;;;5115048;28;20168;-40
2021/05/16 12:29:40;;;;;;;11.57;4.35;;;;;;;;;;5109769;28;20181;-40
2021/05/16 12:32:06;;;;;;;7.95;3.85;;;;;;;;;;5103354;28;20174;-40
2021/05/16 12:34:33;;;;;;;11.55;4.10;;;;;;;;;;5112918;28;20173;-40
2021/05/16 12:36:59;;;;;;;9.18;4.22;;;;;;;;;;5114943;28;20264;-40
2021/05/16 12:39:44;;;;;;;12.02;4.65;;;;;;;;;;5113732;28;20192;-40
2021/05/16 12:42:25;;;;;;;9.93;4.22;;;;;;;;;;5112212;28;20169;-40
2021/05/16 12:44:52;;;;;;;8.25;3.88;;;;;;;;;;5094911;28;20204;-40
2021/05/16 12:47:22;;;;;;;9.77;3.90;;;;;;;;;;5112678;28;20216;-40
2021/05/16 12:49:48;;;;;;;7.72;3.53;;;;;;;;;;5114966;28;20173;-40
2021/05/16 12:52:23;;;;;;;9.35;3.60;;;;;;;;;;5110784;28;20517;-40
2021/05/16 12:54:49;;;;;;;8.60;3.13;;;;;;;;;;5115088;28;20217;-40
2021/05/16 12:57:26;;;;;;;8.85;3.47;;;;;;;;;;5101937;28;20694;-40
2021/05/16 12:59:52;;;;;;;8.07;3.38;;;;;;;;;;5094989;28;20178;-40
2021/05/16 13:02:18;;;;;;;8.82;3.35;;;;;;;;;;5112128;28;20187;-40
2021/05/16 13:04:54;;;;;;;7.93;3.78;;;;;;;;;;5114290;28;20476;-40
2021/05/16 13:07:35;;;;;;;6.97;3.55;;;;;;;;;;5113435;28;20203;-40
2021/05/16 13:10:01;;;;;;;6.25;2.97;;;;;;;;;;5101774;28;20197;-40
2021/05/16 13:12:27;;;;;;;7.90;3.30;;;;;;;;;;5111679;28;20182;-40
2021/05/16 13:14:54;;;;;;;6.28;3.03;;;;;;;;;;5114467;28;20230;-40
2021/05/16 13:17:21;;;;;;;6.13;3.10;;;;;;;;;;5114252;28;20170;-40
2021/05/16 13:19:53;;;;;;;7.88;3.13;;;;;;;;;;5114465;28;20280;-40
2021/05/16 13:22:38;;;;;;;7.68;3.42;;;;;;;;;;5116225;28;20181;-40
2021/05/16 13:25:05;;;;;;;6.15;3.00;;;;;;;;;;5115039;28;20539;-40
2021/05/16 13:27:32;;;;;;;5.70;3.17;;;;;;;;;;5115224;28;20170;-40
2021/05/16 13:29:59;;;;;;;6.60;3.13;;;;;;;;;;5101892;28;20218;-40
2021/05/16 13:32:25;;;;;;;8.95;3.53;;;;;;;;;;5117567;28;20177;-40
2021/05/16 13:34:51;;;;;;;16.95;5.20;;;;;;;;;;5117208;28;20487;-40
2021/05/16 13:37:17;;;;;;;19.20;5.93;;;;;;;;;;5117738;28;20181;-40
2021/05/16 13:39:44;;;;;;;21.50;6.30;;;;;;;;;;5117863;28;20184;-40
2021/05/16 13:42:10;;;;;;;26.05;7.60;;;;;;;;;;5111554;28;20184;-40
2021/05/16 13:44:37;;;;;;;29.85;8.15;;;;;;;;;;5117950;28;20188;-40
2021/05/16 13:47:04;;;;;;;29.75;7.70;;;;;;;;;;5118011;28;20173;-40
2021/05/16 13:49:30;;;;;;;37.33;9.93;;;;;;;;;;5117573;28;20214;-40
2021/05/16 13:51:56;;;;;;;35.90;9.40;;;;;;;;;;5117204;28;20173;-40
2021/05/16 13:54:24;;;;;;;36.25;11.23;;;;;;;;;;5100055;28;20548;-40
2021/05/16 13:56:50;;;;;;;37.85;10.82;;;;;;;;;;5117655;28;20166;-40
2021/05/16 13:59:17;;;;;;;42.25;11.63;;;;;;;;;;5109909;28;20209;-41
2021/05/16 14:01:43;;;;;;;42.17;11.57;;;;;;;;;;5116408;28;20175;-40
2021/05/16 14:04:10;;;;;;;53.67;13.52;;;;;;;;;;5117129;28;20203;-40
2021/05/16 14:06:37;;;;;;;48.13;13.23;;;;;;;;;;5117655;28;20206;-40
2021/05/16 14:09:04;;;;;;;45.75;13.32;;;;;;;;;;5117423;28;20238;-40
2021/05/16 14:11:30;;;;;;;43.17;12.57;;;;;;;;;;5116662;28;20177;-40
2021/05/16 14:13:58;;;;;;;41.45;12.20;;;;;;;;;;5116773;28;20173;-40
2021/05/16 14:16:24;;;;;;;39.22;12.68;;;;;;;;;;5097635;28;20177;-40
2021/05/16 14:18:50;;;;;;;40.28;12.48;;;;;;;;;;5115543;28;20173;-40
2021/05/16 14:21:16;;;;;;;30.83;11.43;;;;;;;;;;5117037;28;20211;-40
2021/05/16 14:23:42;;;;;;;38.42;11.23;;;;;;;;;;5108270;28;20194;-40
2021/05/16 14:26:08;;;;;;;34.42;10.77;;;;;;;;;;5117306;28;20550;-40
2021/05/16 14:28:34;;;;;;;31.77;11.70;;;;;;;;;;5117699;28;20256;-40
2021/05/16 14:31:00;;;;;;;38.13;11.15;;;;;;;;;;5110761;28;20194;-41
2021/05/16 14:33:26;;;;;;;35.40;11.43;;;;;;;;;;5116198;28;20185;-40
2021/05/16 14:35:52;;;;;;;29.85;10.48;;;;;;;;;;5117367;28;20180;-40
2021/05/16 14:38:18;;;;;;;31.00;10.40;;;;;;;;;;5116560;28;20196;-40
2021/05/16 14:40:44;;;;;;;33.08;10.85;;;;;;;;;;5104107;28;20178;-40